createdAt,value
2018-09-20T00:00:07.751Z,70.53
2018-09-20T00:01:07.746Z,70.32
2018-09-20T00:02:07.762Z,70.62
2018-09-20T00:03:07.727Z,70.42
2018-09-20T00:04:07.731Z,70.62
2018-09-20T00:05:07.701Z,71.23
2018-09-20T00:06:07.690Z,71.13
2018-09-20T00:07:07.708Z,71.13
2018-09-20T00:08:07.672Z,70.83
2018-09-20T00:09:07.660Z,71.33
2018-09-20T00:10:07.645Z,71.44
2018-09-20T00:11:07.640Z,71.44
2018-09-20T00:12:07.640Z,71.33
2018-09-20T00:13:07.616Z,70.96
2018-09-20T00:14:07.629Z,70.83
2018-09-20T00:15:07.592Z,71.03
2018-09-20T00:16:07.577Z,70.86
2018-09-20T00:17:07.602Z,71.06
2018-09-20T00:18:07.560Z,70.93
2018-09-20T00:19:07.544Z,71.26
2018-09-20T00:20:07.562Z,71.13
2018-09-20T00:21:07.532Z,71.06
2018-09-20T00:22:07.550Z,70.96
2018-09-20T00:23:07.501Z,71.47
2018-09-20T00:24:07.548Z,71.06
2018-09-20T00:25:07.485Z,70.96
2018-09-20T00:26:07.478Z,71.06
2018-09-20T00:27:07.457Z,71.67
2018-09-20T00:28:07.476Z,71.17
2018-09-20T00:29:07.447Z,71.40
2018-09-20T00:30:07.428Z,71.57
2018-09-20T00:31:07.412Z,71.70
2018-09-20T00:32:07.400Z,71.40
2018-09-20T00:33:07.434Z,71.60
2018-09-20T00:34:07.385Z,72.21
2018-09-20T00:35:07.372Z,72.21
2018-09-20T00:36:07.374Z,71.60
2018-09-20T00:37:07.354Z,72.11
2018-09-20T00:38:07.361Z,72.11
2018-09-20T00:39:07.323Z,71.80
2018-09-20T00:40:07.311Z,71.60
2018-09-20T00:41:07.333Z,72.31
2018-09-20T00:42:07.295Z,72.11
2018-09-20T00:43:07.345Z,71.91
2018-09-20T00:44:07.279Z,72.31
2018-09-20T00:45:07.258Z,72.81
2018-09-20T00:46:07.261Z,72.44
2018-09-20T00:47:07.238Z,72.51
2018-09-20T00:48:07.230Z,72.85
2018-09-20T00:49:07.251Z,72.55
2018-09-20T00:50:07.211Z,72.34
2018-09-20T00:51:07.195Z,72.71
2018-09-20T00:52:07.188Z,72.64
2018-09-20T00:53:07.167Z,73.05
2018-09-20T00:54:07.178Z,72.64
2018-09-20T00:55:07.153Z,72.75
2018-09-20T00:56:07.161Z,73.05
2018-09-20T00:57:07.147Z,72.75
2018-09-20T00:58:07.132Z,73.35
2018-09-20T00:59:07.135Z,72.55
2018-09-20T01:00:07.097Z,72.64
2018-09-20T01:01:07.085Z,72.75
2018-09-20T01:02:07.076Z,72.75
2018-09-20T01:03:07.064Z,72.64
2018-09-20T01:04:07.068Z,73.25
2018-09-20T01:05:07.108Z,73.35
2018-09-20T01:06:07.065Z,73.25
2018-09-20T01:07:07.020Z,73.39
2018-09-20T01:08:07.007Z,73.35
2018-09-20T01:09:07.075Z,73.35
2018-09-20T01:10:06.987Z,73.55
2018-09-20T01:11:06.986Z,73.35
2018-09-20T01:12:06.965Z,73.66
2018-09-20T01:13:06.958Z,73.46
2018-09-20T01:14:06.967Z,73.39
2018-09-20T01:15:06.952Z,73.59
2018-09-20T01:16:06.917Z,73.49
2018-09-20T01:17:06.909Z,73.59
2018-09-20T01:18:06.913Z,73.99
2018-09-20T01:19:06.906Z,74.10
2018-09-20T01:20:06.899Z,74.30
2018-09-20T01:21:06.883Z,74.19
2018-09-20T01:22:06.850Z,74.10
2018-09-20T01:23:06.836Z,73.99
2018-09-20T01:24:06.850Z,73.99
2018-09-20T01:25:06.842Z,73.90
2018-09-20T01:26:06.802Z,73.79
2018-09-20T01:27:06.796Z,74.30
2018-09-20T01:28:06.840Z,74.30
2018-09-20T01:29:06.803Z,74.54
2018-09-20T01:30:06.782Z,74.63
2018-09-20T01:31:06.753Z,74.43
2018-09-20T01:32:06.740Z,74.33
2018-09-20T01:33:06.748Z,74.54
2018-09-20T01:34:06.718Z,74.60
2018-09-20T01:35:06.741Z,74.50
2018-09-20T01:36:06.730Z,74.54
2018-09-20T01:37:06.694Z,74.50
2018-09-20T01:38:06.685Z,74.94
2018-09-20T01:39:06.661Z,74.84
2018-09-20T01:40:06.683Z,74.43
2018-09-20T01:41:06.634Z,74.74
2018-09-20T01:42:06.641Z,74.84
2018-09-20T01:43:06.619Z,74.43
2018-09-20T01:44:06.629Z,75.04
2018-09-20T01:45:06.614Z,74.94
2018-09-20T01:46:06.619Z,75.24
2018-09-20T01:47:06.571Z,75.04
2018-09-20T01:48:06.571Z,75.34
2018-09-20T01:49:06.563Z,75.34
2018-09-20T01:50:06.539Z,75.65
2018-09-20T01:51:06.548Z,75.75
2018-09-20T01:52:06.518Z,75.65
2018-09-20T01:53:06.501Z,75.55
2018-09-20T01:54:06.500Z,75.04
2018-09-20T01:55:06.484Z,75.65
2018-09-20T01:56:06.513Z,75.18
2018-09-20T01:57:06.483Z,75.34
2018-09-20T01:58:06.447Z,75.45
2018-09-20T01:59:06.437Z,75.45
2018-09-20T02:00:06.436Z,75.24
2018-09-20T02:01:06.415Z,75.14
2018-09-20T02:02:06.432Z,75.65
2018-09-20T02:03:06.395Z,75.55
2018-09-20T02:04:06.388Z,75.65
2018-09-20T02:05:06.383Z,75.95
2018-09-20T02:06:06.359Z,75.55
2018-09-20T02:07:06.369Z,75.99
2018-09-20T02:08:06.338Z,75.75
2018-09-20T02:09:06.323Z,75.99
2018-09-20T02:10:06.315Z,75.58
2018-09-20T02:11:06.314Z,75.89
2018-09-20T02:12:06.345Z,75.79
2018-09-20T02:13:06.281Z,75.79
2018-09-20T02:14:06.287Z,75.89
2018-09-20T02:15:06.258Z,76.19
2018-09-20T02:16:06.245Z,75.89
2018-09-20T02:17:06.266Z,76.19
2018-09-20T02:18:06.234Z,76.19
2018-09-20T02:19:06.221Z,76.09
2018-09-20T02:20:06.201Z,75.99
2018-09-20T02:21:06.200Z,76.19
2018-09-20T02:22:06.197Z,75.89
2018-09-20T02:23:06.204Z,75.99
2018-09-20T02:24:06.164Z,76.35
2018-09-20T02:25:06.144Z,76.39
2018-09-20T02:26:06.142Z,76.19
2018-09-20T02:27:06.119Z,76.09
2018-09-20T02:28:06.139Z,76.09
2018-09-20T02:29:06.102Z,76.29
2018-09-20T02:30:06.108Z,76.59
2018-09-20T02:31:06.090Z,76.83
2018-09-20T02:32:06.088Z,76.59
2018-09-20T02:33:06.077Z,76.73
2018-09-20T02:34:06.048Z,77.24
2018-09-20T02:35:06.055Z,76.63
2018-09-20T02:36:06.026Z,76.73
2018-09-20T02:37:06.017Z,76.63
2018-09-20T02:38:06.050Z,76.43
2018-09-20T02:39:05.997Z,77.14
2018-09-20T02:40:05.990Z,77.44
2018-09-20T02:41:05.985Z,77.44
2018-09-20T02:42:05.962Z,77.37
2018-09-20T02:43:05.968Z,77.07
2018-09-20T02:44:05.939Z,77.54
2018-09-20T02:45:05.920Z,77.54
2018-09-20T02:46:05.921Z,77.17
2018-09-20T02:47:05.902Z,78.08
2018-09-20T02:48:05.916Z,77.75
2018-09-20T02:49:05.876Z,77.98
2018-09-20T02:50:05.869Z,77.58
2018-09-20T02:51:05.874Z,77.98
2018-09-20T02:52:05.869Z,77.98
2018-09-20T02:53:05.856Z,77.98
2018-09-20T02:54:05.839Z,77.48
2018-09-20T02:55:05.808Z,77.88
2018-09-20T02:56:05.801Z,77.98
2018-09-20T02:57:05.793Z,77.88
2018-09-20T02:58:05.781Z,77.78
2018-09-20T02:59:05.929Z,78.08
2018-09-20T03:00:05.761Z,77.88
2018-09-20T03:01:05.746Z,77.28
2018-09-20T03:02:05.729Z,77.24
2018-09-20T03:03:05.729Z,77.84
2018-09-20T03:04:05.760Z,77.84
2018-09-20T03:05:05.702Z,77.95
2018-09-20T03:06:05.698Z,77.58
2018-09-20T03:07:05.690Z,77.88
2018-09-20T03:08:05.676Z,77.78
2018-09-20T03:09:05.675Z,77.78
2018-09-20T03:10:05.651Z,77.88
2018-09-20T03:11:05.630Z,78.08
2018-09-20T03:12:05.623Z,77.88
2018-09-20T03:13:05.612Z,77.48
2018-09-20T03:15:06.742Z,77.98
2018-09-20T03:16:05.579Z,77.28
2018-09-20T03:17:05.570Z,77.17
2018-09-20T03:18:05.563Z,77.31
2018-09-20T03:19:05.586Z,78.08
2018-09-20T03:20:05.537Z,77.82
2018-09-20T03:21:05.532Z,78.19
2018-09-20T03:22:05.510Z,78.53
2018-09-20T03:23:05.503Z,77.92
2018-09-20T03:24:05.533Z,78.02
2018-09-20T03:25:05.574Z,77.78
2018-09-20T03:26:05.475Z,77.92
2018-09-20T03:27:05.511Z,77.48
2018-09-20T03:28:05.444Z,77.88
2018-09-20T03:29:05.457Z,77.72
2018-09-20T03:30:05.441Z,78.19
2018-09-20T03:31:05.415Z,77.58
2018-09-20T03:32:05.398Z,77.48
2018-09-20T03:33:05.388Z,77.48
2018-09-20T03:34:05.387Z,77.98
2018-09-20T03:35:05.391Z,77.88
2018-09-20T03:36:05.353Z,77.48
2018-09-20T03:37:05.359Z,77.88
2018-09-20T03:38:05.332Z,77.88
2018-09-20T03:39:05.329Z,77.88
2018-09-20T03:40:05.320Z,77.37
2018-09-20T03:41:05.296Z,77.82
2018-09-20T03:42:05.301Z,77.28
2018-09-20T03:43:05.285Z,78.53
2018-09-20T03:44:05.267Z,77.92
2018-09-20T03:45:05.279Z,78.33
2018-09-20T03:46:05.271Z,77.82
2018-09-20T03:47:05.234Z,78.12
2018-09-20T03:48:05.223Z,78.83
2018-09-20T03:49:05.219Z,78.22
2018-09-20T03:50:05.225Z,77.92
2018-09-20T03:51:05.192Z,78.02
2018-09-20T03:52:05.203Z,78.19
2018-09-20T03:53:05.162Z,78.33
2018-09-20T03:54:05.156Z,77.92
2018-09-20T03:55:05.165Z,77.92
2018-09-20T03:56:05.156Z,78.63
2018-09-20T03:57:05.118Z,78.02
2018-09-20T03:58:05.108Z,77.82
2018-09-20T03:59:05.109Z,79.03
2018-09-20T04:00:05.225Z,78.12
2018-09-20T04:01:05.097Z,78.22
2018-09-20T04:02:05.094Z,78.53
2018-09-20T04:03:05.057Z,78.42
2018-09-20T04:04:05.052Z,78.69
2018-09-20T04:05:05.057Z,78.63
2018-09-20T04:06:05.039Z,78.19
2018-09-20T04:07:05.033Z,78.19
2018-09-20T04:08:04.996Z,78.02
2018-09-20T04:09:04.999Z,78.08
2018-09-20T04:10:04.977Z,78.12
2018-09-20T04:11:04.998Z,78.02
2018-09-20T04:12:04.974Z,78.33
2018-09-20T04:13:04.966Z,78.08
2018-09-20T04:14:04.935Z,78.19
2018-09-20T04:15:04.921Z,77.78
2018-09-20T04:16:04.920Z,78.02
2018-09-20T04:17:04.922Z,78.08
2018-09-20T04:18:04.901Z,77.98
2018-09-20T04:19:04.880Z,77.98
2018-09-20T04:20:04.861Z,77.88
2018-09-20T04:21:04.878Z,77.98
2018-09-20T04:22:04.865Z,77.98
2018-09-20T04:23:04.870Z,78.19
2018-09-20T04:24:04.839Z,77.78
2018-09-20T04:25:04.815Z,77.48
2018-09-20T04:26:04.829Z,77.28
2018-09-20T04:27:04.876Z,77.54
2018-09-20T04:28:04.776Z,77.75
2018-09-20T04:29:04.790Z,77.68
2018-09-20T04:30:04.751Z,77.88
2018-09-20T04:31:04.787Z,77.84
2018-09-20T04:32:04.764Z,77.98
2018-09-20T04:33:04.723Z,77.84
2018-09-20T04:34:04.715Z,77.64
2018-09-20T04:35:04.722Z,77.64
2018-09-20T04:36:04.732Z,78.39
2018-09-20T04:37:04.733Z,77.98
2018-09-20T04:38:04.664Z,78.19
2018-09-20T04:39:04.656Z,78.19
2018-09-20T04:40:04.652Z,77.14
2018-09-20T04:41:04.636Z,77.84
2018-09-20T04:42:04.646Z,77.44
2018-09-20T04:43:04.619Z,77.98
2018-09-20T04:44:04.606Z,77.88
2018-09-20T04:45:04.604Z,77.95
2018-09-20T04:46:04.593Z,77.84
2018-09-20T04:47:04.589Z,78.15
2018-09-20T04:48:04.605Z,77.54
2018-09-20T04:49:04.547Z,77.95
2018-09-20T04:50:04.544Z,77.84
2018-09-20T04:51:04.521Z,77.54
2018-09-20T04:52:04.527Z,77.03
2018-09-20T04:53:04.506Z,77.34
2018-09-20T04:54:04.493Z,77.54
2018-09-20T04:55:04.483Z,77.54
2018-09-20T04:56:04.469Z,77.64
2018-09-20T04:57:04.512Z,77.75
2018-09-20T04:58:04.449Z,77.03
2018-09-20T04:59:04.454Z,77.44
2018-09-20T05:00:04.528Z,77.44
2018-09-20T05:01:04.415Z,77.03
2018-09-20T05:02:04.419Z,77.44
2018-09-20T05:03:04.401Z,77.24
2018-09-20T05:04:04.377Z,77.54
2018-09-20T05:05:04.380Z,77.34
2018-09-20T05:06:04.357Z,77.14
2018-09-20T05:07:04.362Z,77.54
2018-09-20T05:08:04.371Z,77.44
2018-09-20T05:09:04.354Z,77.75
2018-09-20T05:10:04.328Z,77.84
2018-09-20T05:11:04.318Z,78.45
2018-09-20T05:12:04.318Z,77.78
2018-09-20T05:13:04.297Z,77.44
2018-09-20T05:14:04.270Z,77.58
2018-09-20T05:15:04.273Z,77.98
2018-09-20T05:16:04.250Z,77.88
2018-09-20T05:17:04.238Z,77.88
2018-09-20T05:18:04.248Z,78.28
2018-09-20T05:19:04.265Z,78.59
2018-09-20T05:20:04.259Z,78.79
2018-09-20T05:21:04.191Z,78.19
2018-09-20T05:22:04.196Z,79.20
2018-09-20T05:23:04.198Z,78.89
2018-09-20T05:24:04.160Z,79.10
2018-09-20T05:25:04.146Z,79.34
2018-09-20T05:26:04.135Z,79.44
2018-09-20T05:27:04.121Z,79.34
2018-09-20T05:28:04.164Z,79.44
2018-09-20T05:29:04.128Z,79.13
2018-09-20T05:30:04.097Z,79.40
2018-09-20T05:31:04.098Z,79.20
2018-09-20T05:32:04.091Z,79.24
2018-09-20T05:33:04.065Z,79.74
2018-09-20T05:34:04.079Z,79.64
2018-09-20T05:35:04.044Z,79.03
2018-09-20T05:36:04.031Z,79.44
2018-09-20T05:37:04.049Z,79.64
2018-09-20T05:38:04.008Z,79.34
2018-09-20T05:39:04.013Z,79.34
2018-09-20T05:40:03.987Z,79.50
2018-09-20T05:41:03.974Z,79.40
2018-09-20T05:42:03.960Z,79.54
2018-09-20T05:43:03.950Z,79.03
2018-09-20T05:44:03.976Z,79.64
2018-09-20T05:45:03.953Z,79.54
2018-09-20T05:46:03.913Z,79.50
2018-09-20T05:47:03.907Z,78.93
2018-09-20T05:48:03.905Z,79.50
2018-09-20T05:49:03.903Z,79.20
2018-09-20T05:50:03.878Z,79.50
2018-09-20T05:51:03.855Z,79.00
2018-09-20T05:52:03.847Z,79.20
2018-09-20T05:53:03.846Z,79.50
2018-09-20T05:54:03.865Z,78.79
2018-09-20T05:55:03.823Z,79.60
2018-09-20T05:56:03.804Z,78.89
2018-09-20T05:57:03.798Z,78.89
2018-09-20T05:58:03.787Z,79.00
2018-09-20T05:59:03.784Z,79.00
2018-09-20T06:00:03.773Z,79.60
2018-09-20T06:01:03.762Z,79.10
2018-09-20T06:02:03.769Z,79.00
2018-09-20T06:03:03.726Z,78.59
2018-09-20T06:04:03.737Z,78.75
2018-09-20T06:05:03.743Z,78.86
2018-09-20T06:06:03.710Z,78.28
2018-09-20T06:07:03.701Z,78.15
2018-09-20T06:08:03.678Z,78.86
2018-09-20T06:09:03.665Z,78.35
2018-09-20T06:10:03.676Z,78.86
2018-09-20T06:11:03.644Z,78.96
2018-09-20T06:12:03.640Z,79.16
2018-09-20T06:13:03.618Z,78.96
2018-09-20T06:14:03.625Z,77.95
2018-09-20T06:15:03.608Z,77.44
2018-09-20T06:16:03.584Z,78.25
2018-09-20T06:17:03.573Z,77.95
2018-09-20T06:18:03.574Z,77.20
2018-09-20T06:19:03.551Z,78.01
2018-09-20T06:20:03.556Z,77.50
2018-09-20T06:21:03.528Z,77.81
2018-09-20T06:22:03.512Z,77.17
2018-09-20T06:23:03.505Z,77.17
2018-09-20T06:24:03.492Z,76.97
2018-09-20T06:25:03.542Z,76.42
2018-09-20T06:26:03.500Z,76.22
2018-09-20T06:27:03.462Z,75.88
2018-09-20T06:28:03.451Z,75.68
2018-09-20T06:29:03.452Z,75.78
2018-09-20T06:30:03.472Z,74.84
2018-09-20T06:31:03.424Z,75.04
2018-09-20T06:32:03.403Z,74.63
2018-09-20T06:33:03.397Z,74.84
2018-09-20T06:34:03.389Z,74.93
2018-09-20T06:35:03.394Z,74.63
2018-09-20T06:36:03.402Z,74.22
2018-09-20T06:37:03.371Z,74.13
2018-09-20T06:38:03.336Z,74.69
2018-09-20T06:39:03.326Z,74.69
2018-09-20T06:40:03.320Z,73.79
2018-09-20T06:41:03.415Z,74.09
2018-09-20T06:42:03.297Z,73.89
2018-09-20T06:43:03.279Z,73.58
2018-09-20T06:44:03.274Z,73.35
2018-09-20T06:45:03.290Z,73.15
2018-09-20T06:46:03.274Z,73.65
2018-09-20T06:47:03.239Z,73.15
2018-09-20T06:48:03.227Z,73.15
2018-09-20T06:49:03.215Z,72.64
2018-09-20T06:50:03.210Z,73.11
2018-09-20T06:51:03.213Z,73.25
2018-09-20T06:52:03.182Z,73.05
2018-09-20T06:53:03.177Z,72.85
2018-09-20T06:54:03.190Z,73.22
2018-09-20T06:55:03.154Z,73.32
2018-09-20T06:56:03.178Z,72.51
2018-09-20T06:57:03.139Z,72.00
2018-09-20T06:58:03.118Z,72.71
2018-09-20T06:59:03.128Z,72.61
2018-09-20T07:00:03.090Z,72.41
2018-09-20T07:01:03.116Z,72.61
2018-09-20T07:02:03.085Z,73.42
2018-09-20T07:03:03.172Z,72.51
2018-09-20T07:04:03.057Z,72.81
2018-09-20T07:05:03.041Z,72.20
2018-09-20T07:06:03.032Z,72.41
2018-09-20T07:07:03.028Z,71.97
2018-09-20T07:08:03.007Z,71.77
2018-09-20T07:09:03.010Z,71.77
2018-09-20T07:10:02.997Z,71.84
2018-09-20T07:11:02.982Z,71.03
2018-09-20T07:12:04.851Z,71.33
2018-09-20T07:13:02.952Z,71.23
2018-09-20T07:14:02.948Z,71.03
2018-09-20T07:15:02.927Z,70.93
2018-09-20T07:16:02.920Z,71.30
2018-09-20T07:17:02.945Z,70.59
2018-09-20T07:18:02.903Z,70.39
2018-09-20T07:19:02.934Z,70.59
2018-09-20T07:20:02.882Z,70.59
2018-09-20T07:21:02.867Z,70.59
2018-09-20T07:22:02.886Z,69.69
2018-09-20T07:23:02.850Z,70.16
2018-09-20T07:24:02.842Z,70.16
2018-09-20T07:25:02.858Z,69.12
2018-09-20T07:26:02.817Z,68.91
2018-09-20T07:27:02.838Z,69.02
2018-09-20T07:28:02.784Z,69.02
2018-09-20T07:29:02.774Z,69.02
2018-09-20T07:30:02.761Z,69.12
2018-09-20T07:31:02.754Z,68.98
2018-09-20T07:32:02.777Z,68.71
2018-09-20T07:33:02.732Z,68.51
2018-09-20T07:34:02.714Z,68.21
2018-09-20T07:35:02.715Z,68.21
2018-09-20T07:36:02.695Z,69.02
2018-09-20T07:37:02.708Z,69.22
2018-09-20T07:38:02.672Z,68.71
2018-09-20T07:39:02.681Z,68.51
2018-09-20T07:40:02.659Z,68.71
2018-09-20T07:41:02.639Z,68.85
2018-09-20T07:42:02.702Z,69.15
2018-09-20T07:43:02.630Z,69.25
2018-09-20T07:44:02.605Z,68.91
2018-09-20T07:45:02.598Z,69.35
2018-09-20T07:46:02.586Z,69.25
2018-09-20T07:47:02.578Z,69.32
2018-09-20T07:48:02.592Z,69.12
2018-09-20T07:49:02.549Z,69.72
2018-09-20T07:50:02.580Z,69.15
2018-09-20T07:51:02.536Z,69.02
2018-09-20T07:52:02.537Z,69.12
2018-09-20T07:53:02.547Z,69.25
2018-09-20T07:54:02.512Z,68.82
2018-09-20T07:55:02.496Z,69.02
2018-09-20T07:56:02.478Z,68.91
2018-09-20T07:57:02.512Z,68.88
2018-09-20T07:58:02.473Z,68.28
2018-09-20T07:59:02.457Z,68.75
2018-09-20T08:00:02.433Z,66.94
2018-09-20T08:01:02.424Z,67.35
2018-09-20T08:02:02.427Z,67.21
2018-09-20T08:03:02.455Z,66.67
2018-09-20T08:04:02.385Z,65.74
2018-09-20T08:05:02.385Z,64.81
2018-09-20T08:06:02.367Z,64.81
2018-09-20T08:07:02.382Z,63.84
2018-09-20T08:08:02.367Z,62.61
2018-09-20T08:09:02.331Z,61.88
2018-09-20T08:10:02.339Z,61.72
2018-09-20T08:11:02.318Z,60.10
2018-09-20T08:12:02.303Z,59.27
2018-09-20T08:13:02.371Z,57.93
2018-09-20T08:14:02.289Z,57.51
2018-09-20T08:15:02.283Z,57.18
2018-09-20T08:16:02.262Z,55.96
2018-09-20T08:17:02.277Z,55.06
2018-09-20T08:18:02.236Z,54.71
2018-09-20T08:19:02.247Z,54.51
2018-09-20T08:20:02.221Z,54.71
2018-09-20T08:21:02.203Z,54.71
2018-09-20T08:22:02.192Z,54.71
2018-09-20T08:23:02.214Z,54.61
2018-09-20T08:24:02.199Z,54.71
2018-09-20T08:25:02.162Z,53.99
2018-09-20T08:26:02.178Z,54.36
2018-09-20T08:27:02.147Z,53.96
2018-09-20T08:28:02.140Z,52.67
2018-09-20T08:29:02.141Z,53.66
2018-09-20T08:30:02.149Z,55.31
2018-09-20T08:31:02.105Z,54.44
2018-09-20T08:32:02.095Z,55.96
2018-09-20T08:33:02.113Z,55.86
2018-09-20T08:34:02.111Z,55.36
2018-09-20T08:35:02.080Z,56.26
2018-09-20T08:36:02.086Z,56.53
2018-09-20T08:37:02.045Z,55.54
2018-09-20T08:38:02.037Z,55.21
2018-09-20T08:39:02.048Z,54.98
2018-09-20T08:40:02.013Z,54.58
2018-09-20T08:41:02.014Z,54.58
2018-09-20T08:42:02.016Z,55.08
2018-09-20T08:43:01.978Z,55.11
2018-09-20T08:44:01.999Z,55.08
2018-09-20T08:45:01.963Z,55.11
2018-09-20T08:46:01.954Z,55.21
2018-09-20T08:47:01.938Z,55.31
2018-09-20T08:48:01.942Z,55.11
2018-09-20T08:49:01.949Z,54.79
2018-09-20T08:50:01.929Z,54.58
2018-09-20T08:51:01.923Z,54.16
2018-09-20T08:52:01.893Z,54.24
2018-09-20T08:53:01.877Z,54.43
2018-09-20T08:54:01.862Z,54.26
2018-09-20T08:55:01.869Z,54.88
2018-09-20T08:56:01.847Z,55.18
2018-09-20T08:57:01.878Z,55.31
2018-09-20T08:58:01.826Z,55.24
2018-09-20T08:59:01.823Z,56.46
2018-09-20T09:00:01.834Z,57.06
2018-09-20T09:01:01.793Z,57.06
2018-09-20T09:02:01.775Z,57.15
2018-09-20T09:03:01.791Z,56.73
2018-09-20T09:04:01.758Z,56.33
2018-09-20T09:05:01.802Z,56.03
2018-09-20T09:06:01.737Z,57.03
2018-09-20T09:07:01.723Z,56.63
2018-09-20T09:08:01.711Z,56.23
2018-09-20T09:09:01.732Z,56.30
2018-09-20T09:10:01.739Z,55.21
2018-09-20T09:11:01.685Z,55.51
2018-09-20T09:12:01.695Z,56.01
2018-09-20T09:13:01.693Z,55.71
2018-09-20T09:14:01.649Z,54.88
2018-09-20T09:15:01.657Z,55.61
2018-09-20T09:16:01.649Z,55.61
2018-09-20T09:17:01.620Z,56.18
2018-09-20T09:18:01.618Z,55.38
2018-09-20T09:19:01.604Z,55.35
2018-09-20T09:20:01.584Z,54.86
2018-09-20T09:21:01.609Z,54.66
2018-09-20T09:22:01.582Z,53.96
2018-09-20T09:23:01.559Z,54.79
2018-09-20T09:24:01.557Z,54.88
2018-09-20T09:25:01.582Z,54.81
2018-09-20T09:26:01.520Z,55.24
2018-09-20T09:27:01.532Z,55.46
2018-09-20T09:28:01.518Z,56.76
2018-09-20T09:29:01.492Z,57.28
2018-09-20T09:30:01.480Z,56.98
2018-09-20T09:31:01.495Z,57.06
2018-09-20T09:32:01.481Z,57.35
2018-09-20T09:33:01.463Z,56.96
2018-09-20T09:34:01.485Z,56.73
2018-09-20T09:35:01.424Z,56.83
2018-09-20T09:36:01.439Z,55.51
2018-09-20T09:37:01.422Z,55.11
2018-09-20T09:38:01.401Z,55.21
2018-09-20T09:39:01.392Z,55.83
2018-09-20T09:40:01.376Z,55.46
2018-09-20T09:41:01.361Z,56.66
2018-09-20T09:42:01.401Z,56.85
2018-09-20T09:43:01.354Z,55.96
2018-09-20T09:44:01.331Z,54.74
2018-09-20T09:45:01.330Z,54.83
2018-09-20T09:46:01.312Z,54.81
2018-09-20T09:47:01.318Z,54.71
2018-09-20T09:48:01.404Z,55.01
2018-09-20T09:49:01.276Z,55.11
2018-09-20T09:50:01.272Z,54.71
2018-09-20T09:51:01.253Z,54.98
2018-09-20T09:52:01.380Z,55.08
2018-09-20T09:53:01.255Z,54.08
2018-09-20T09:54:01.229Z,53.99
2018-09-20T09:55:01.238Z,54.16
2018-09-20T09:56:01.210Z,53.53
2018-09-20T09:57:01.235Z,53.14
2018-09-20T09:58:01.180Z,52.44
2018-09-20T09:59:01.173Z,52.57
2018-09-20T10:00:01.164Z,52.97
2018-09-20T10:01:01.156Z,52.97
2018-09-20T10:02:01.162Z,53.94
2018-09-20T10:03:01.133Z,53.44
2018-09-20T10:04:01.121Z,52.91
2018-09-20T10:05:01.105Z,52.81
2018-09-20T10:06:01.097Z,51.52
2018-09-20T10:07:01.186Z,50.82
2018-09-20T10:08:01.103Z,51.32
2018-09-20T10:09:01.094Z,51.42
2018-09-20T10:10:01.053Z,51.32
2018-09-20T10:11:01.048Z,52.74
2018-09-20T10:12:01.047Z,52.54
2018-09-20T10:13:01.050Z,51.45
2018-09-20T10:14:01.003Z,51.54
2018-09-20T10:15:01.015Z,52.74
2018-09-20T10:16:00.989Z,52.74
2018-09-20T10:17:00.978Z,53.14
2018-09-20T10:18:00.996Z,52.74
2018-09-20T10:19:00.956Z,51.77
2018-09-20T10:20:01.034Z,52.34
2018-09-20T10:21:00.934Z,52.22
2018-09-20T10:22:00.923Z,51.62
2018-09-20T10:23:00.938Z,51.82
2018-09-20T10:24:00.958Z,50.03
2018-09-20T10:25:00.895Z,50.43
2018-09-20T10:26:00.909Z,50.60
2018-09-20T10:27:00.868Z,50.82
2018-09-20T10:28:00.926Z,51.72
2018-09-20T10:29:00.872Z,51.52
2018-09-20T10:30:00.858Z,51.22
2018-09-20T10:31:00.857Z,51.22
2018-09-20T10:32:00.819Z,51.05
2018-09-20T10:33:00.803Z,52.37
2018-09-20T10:34:00.854Z,51.20
2018-09-20T10:35:00.809Z,52.99
2018-09-20T10:36:00.770Z,52.89
2018-09-20T10:37:00.769Z,52.72
2018-09-20T10:38:00.756Z,52.84
2018-09-20T10:39:00.780Z,53.04
2018-09-20T10:40:00.728Z,53.11
2018-09-20T10:41:00.764Z,52.92
2018-09-20T10:42:00.707Z,51.29
2018-09-20T10:43:00.712Z,52.59
2018-09-20T10:44:00.687Z,52.12
2018-09-20T10:45:00.698Z,52.72
2018-09-20T10:46:00.673Z,51.62
2018-09-20T10:47:00.662Z,51.89
2018-09-20T10:48:00.641Z,52.29
2018-09-20T10:49:00.633Z,51.52
2018-09-20T10:50:00.645Z,51.32
2018-09-20T10:51:00.668Z,52.81
2018-09-20T10:52:00.614Z,52.44
2018-09-20T10:53:00.594Z,52.74
2018-09-20T10:54:00.583Z,52.32
2018-09-20T10:55:00.584Z,52.51
2018-09-20T10:56:00.578Z,52.44
2018-09-20T10:57:00.548Z,53.06
2018-09-20T10:58:00.552Z,52.87
2018-09-20T10:59:00.526Z,52.87
2018-09-20T11:00:00.520Z,53.56
2018-09-20T11:01:00.524Z,52.87
2018-09-20T11:02:00.503Z,53.47
2018-09-20T11:03:00.518Z,53.27
2018-09-20T11:04:00.499Z,54.53
2018-09-20T11:05:00.485Z,52.94
2018-09-20T11:06:00.484Z,52.42
2018-09-20T11:07:00.439Z,53.02
2018-09-20T11:08:00.436Z,53.02
2018-09-20T11:09:00.419Z,52.44
2018-09-20T11:10:00.408Z,52.32
2018-09-20T11:11:00.492Z,52.97
2018-09-20T11:12:00.392Z,51.65
2018-09-20T11:13:00.393Z,50.65
2018-09-20T11:14:00.370Z,51.54
2018-09-20T11:15:00.363Z,51.65
2018-09-20T11:16:00.366Z,51.27
2018-09-20T11:17:00.349Z,51.05
2018-09-20T11:18:00.328Z,52.07
2018-09-20T11:19:00.314Z,51.29
2018-09-20T11:20:00.337Z,51.22
2018-09-20T11:21:00.318Z,52.62
2018-09-20T11:22:00.275Z,52.44
2018-09-20T11:23:00.270Z,53.04
2018-09-20T11:24:00.255Z,53.77
2018-09-20T11:25:00.256Z,53.66
2018-09-20T11:26:00.330Z,53.14
2018-09-20T11:27:00.254Z,52.74
2018-09-20T11:28:00.213Z,52.81
2018-09-20T11:29:00.204Z,53.19
2018-09-20T11:30:00.199Z,52.00
2018-09-20T11:31:00.229Z,52.37
2018-09-20T11:32:00.170Z,51.75
2018-09-20T11:33:00.161Z,51.54
2018-09-20T11:34:00.153Z,51.25
2018-09-20T11:35:00.150Z,51.35
2018-09-20T11:36:00.150Z,51.65
2018-09-20T11:37:00.128Z,51.75
2018-09-20T11:38:00.121Z,51.25
2018-09-20T11:39:00.103Z,51.05
2018-09-20T11:40:00.095Z,50.78
2018-09-20T11:41:00.161Z,50.57
2018-09-20T11:42:00.070Z,50.25
2018-09-20T11:43:00.053Z,49.55
2018-09-20T11:44:00.052Z,51.84
2018-09-20T11:45:00.038Z,50.33
2018-09-20T11:46:00.045Z,48.64
2018-09-20T11:47:00.007Z,49.53
2018-09-20T11:48:00.002Z,49.13
2018-09-20T11:49:00.018Z,48.11
2018-09-20T11:49:59.994Z,48.81
2018-09-20T11:50:59.968Z,48.29
2018-09-20T11:51:59.977Z,48.49
2018-09-20T11:52:59.943Z,47.38
2018-09-20T11:53:59.939Z,47.10
2018-09-20T11:54:59.928Z,47.30
2018-09-20T11:55:59.916Z,47.28
2018-09-20T11:56:59.914Z,47.52
2018-09-20T11:57:59.891Z,47.62
2018-09-20T12:00:01.003Z,47.10
2018-09-20T12:00:59.870Z,48.59
2018-09-20T12:01:59.951Z,47.38
2018-09-20T12:02:59.842Z,47.60
2018-09-20T12:03:59.824Z,48.71
2018-09-20T12:04:59.817Z,47.52
2018-09-20T12:05:59.810Z,48.32
2018-09-20T12:06:59.792Z,47.84
2018-09-20T12:07:59.801Z,48.94
2018-09-20T12:08:59.779Z,48.94
2018-09-20T12:09:59.782Z,49.31
2018-09-20T12:10:59.749Z,47.42
2018-09-20T12:11:59.738Z,47.14
2018-09-20T12:12:59.775Z,47.44
2018-09-20T12:13:59.716Z,47.25
2018-09-20T12:14:59.708Z,47.25
2018-09-20T12:15:59.696Z,48.54
2018-09-20T12:16:59.693Z,49.01
2018-09-20T12:17:59.746Z,47.30
2018-09-20T12:18:59.663Z,47.30
2018-09-20T12:19:59.734Z,46.98
2018-09-20T12:20:59.638Z,47.38
2018-09-20T12:21:59.655Z,46.16
2018-09-20T12:22:59.614Z,46.08
2018-09-20T12:23:59.699Z,46.38
2018-09-20T12:24:59.601Z,46.90
2018-09-20T12:25:59.675Z,46.50
2018-09-20T12:26:59.576Z,47.13
2018-09-20T12:27:59.621Z,46.72
2018-09-20T12:28:59.572Z,46.72
2018-09-20T12:29:59.543Z,46.53
2018-09-20T12:30:59.535Z,46.13
2018-09-20T12:31:59.592Z,46.23
2018-09-20T12:32:59.510Z,47.54
2018-09-20T12:33:59.525Z,47.34
2018-09-20T12:34:59.504Z,47.34
2018-09-20T12:35:59.525Z,47.44
2018-09-20T12:36:59.461Z,48.44
2018-09-20T12:37:59.460Z,47.44
2018-09-20T12:38:59.499Z,47.34
2018-09-20T12:39:59.460Z,47.14
2018-09-20T12:40:59.434Z,47.27
2018-09-20T12:41:59.418Z,46.57
2018-09-20T12:42:59.558Z,47.66
2018-09-20T12:43:59.391Z,47.07
2018-09-20T12:44:59.423Z,47.34
2018-09-20T12:45:59.374Z,47.74
2018-09-20T12:46:59.357Z,47.42
2018-09-20T12:47:59.351Z,47.42
2018-09-20T12:48:59.338Z,46.80
2018-09-20T12:49:59.349Z,46.50
2018-09-20T12:50:59.316Z,46.41
2018-09-20T12:51:59.309Z,47.02
2018-09-20T12:52:59.296Z,46.13
2018-09-20T12:53:59.309Z,47.10